sensor_id;sensor_type;location;lat;lon;timestamp;P1;durP1;ratioP1;P2;durP2;ratioP2
73142;SDS011;61343;53.694;9.988;2022-08-21T00:00:12;8.37;;;3.70;;
73142;SDS011;61343;53.694;9.988;2022-08-21T00:02:44;7.90;;;4.05;;
73142;SDS011;61343;53.694;9.988;2022-08-21T00:05:11;7.75;;;3.60;;
73142;SDS011;61343;53.694;9.988;2022-08-21T00:07:36;8.60;;;3.80;;
73142;SDS011;61343;53.694;9.988;2022-08-21T00:10:02;8.93;;;3.80;;
73142;SDS011;61343;53.694;9.988;2022-08-21T00:12:29;7.90;;;3.67;;
73142;SDS011;61343;53.694;9.988;2022-08-21T00:14:56;7.22;;;3.85;;
73142;SDS011;61343;53.694;9.988;2022-08-21T00:17:21;9.53;;;4.30;;
73142;SDS011;61343;53.694;9.988;2022-08-21T00:19:47;10.63;;;3.97;;
73142;SDS011;61343;53.694;9.988;2022-08-21T00:22:12;9.60;;;3.97;;
73142;SDS011;61343;53.694;9.988;2022-08-21T00:24:38;8.87;;;3.93;;
73142;SDS011;61343;53.694;9.988;2022-08-21T00:27:03;7.90;;;3.80;;
73142;SDS011;61343;53.694;9.988;2022-08-21T00:29:28;8.52;;;4.45;;
73142;SDS011;61343;53.694;9.988;2022-08-21T00:31:54;9.10;;;4.23;;
73142;SDS011;61343;53.694;9.988;2022-08-21T00:34:19;7.87;;;3.97;;
73142;SDS011;61343;53.694;9.988;2022-08-21T00:36:45;7.90;;;3.90;;
73142;SDS011;61343;53.694;9.988;2022-08-21T00:39:10;7.40;;;4.10;;
73142;SDS011;61343;53.694;9.988;2022-08-21T00:41:36;8.53;;;4.67;;
73142;SDS011;61343;53.694;9.988;2022-08-21T00:44:03;7.82;;;4.05;;
73142;SDS011;61343;53.694;9.988;2022-08-21T00:46:29;8.25;;;4.00;;
73142;SDS011;61343;53.694;9.988;2022-08-21T00:48:55;7.17;;;4.03;;
73142;SDS011;61343;53.694;9.988;2022-08-21T00:51:25;8.38;;;4.35;;
73142;SDS011;61343;53.694;9.988;2022-08-21T00:53:58;8.90;;;4.25;;
73142;SDS011;61343;53.694;9.988;2022-08-21T00:56:26;8.15;;;4.10;;
73142;SDS011;61343;53.694;9.988;2022-08-21T00:58:52;8.98;;;4.63;;
73142;SDS011;61343;53.694;9.988;2022-08-21T01:01:19;11.67;;;4.53;;
73142;SDS011;61343;53.694;9.988;2022-08-21T01:03:45;6.88;;;4.10;;
73142;SDS011;61343;53.694;9.988;2022-08-21T01:06:11;8.40;;;4.40;;
73142;SDS011;61343;53.694;9.988;2022-08-21T01:08:36;9.13;;;4.67;;
73142;SDS011;61343;53.694;9.988;2022-08-21T01:11:02;8.97;;;4.80;;
73142;SDS011;61343;53.694;9.988;2022-08-21T01:13:29;8.48;;;4.60;;
73142;SDS011;61343;53.694;9.988;2022-08-21T01:15:56;9.82;;;4.72;;
73142;SDS011;61343;53.694;9.988;2022-08-21T01:18:25;8.80;;;4.85;;
73142;SDS011;61343;53.694;9.988;2022-08-21T01:23:30;8.43;;;4.73;;
73142;SDS011;61343;53.694;9.988;2022-08-21T01:25:55;8.07;;;4.50;;
73142;SDS011;61343;53.694;9.988;2022-08-21T01:28:21;8.93;;;4.60;;
73142;SDS011;61343;53.694;9.988;2022-08-21T01:30:47;8.65;;;4.75;;
73142;SDS011;61343;53.694;9.988;2022-08-21T01:33:15;8.98;;;4.85;;
73142;SDS011;61343;53.694;9.988;2022-08-21T01:35:42;7.93;;;4.63;;
73142;SDS011;61343;53.694;9.988;2022-08-21T01:38:08;8.20;;;4.75;;
73142;SDS011;61343;53.694;9.988;2022-08-21T01:40:34;8.57;;;4.50;;
73142;SDS011;61343;53.694;9.988;2022-08-21T01:42:59;8.17;;;4.60;;
73142;SDS011;61343;53.694;9.988;2022-08-21T01:45:25;9.20;;;4.60;;
73142;SDS011;61343;53.694;9.988;2022-08-21T01:47:50;9.20;;;4.90;;
73142;SDS011;61343;53.694;9.988;2022-08-21T01:50:17;9.23;;;4.60;;
73142;SDS011;61343;53.694;9.988;2022-08-21T01:52:44;7.67;;;4.33;;
73142;SDS011;61343;53.694;9.988;2022-08-21T01:55:10;8.95;;;4.85;;
73142;SDS011;61343;53.694;9.988;2022-08-21T01:57:36;9.30;;;4.60;;
73142;SDS011;61343;53.694;9.988;2022-08-21T02:00:03;11.33;;;4.80;;
73142;SDS011;61343;53.694;9.988;2022-08-21T02:02:33;8.47;;;4.30;;
73142;SDS011;61343;53.694;9.988;2022-08-21T02:04:58;9.23;;;4.50;;
73142;SDS011;61343;53.694;9.988;2022-08-21T02:07:24;8.48;;;4.28;;
73142;SDS011;61343;53.694;9.988;2022-08-21T02:09:49;8.20;;;4.43;;
73142;SDS011;61343;53.694;9.988;2022-08-21T02:12:14;8.33;;;4.40;;
73142;SDS011;61343;53.694;9.988;2022-08-21T02:14:40;8.10;;;4.50;;
73142;SDS011;61343;53.694;9.988;2022-08-21T02:17:05;8.97;;;4.50;;
73142;SDS011;61343;53.694;9.988;2022-08-21T02:19:31;9.65;;;4.43;;
73142;SDS011;61343;53.694;9.988;2022-08-21T02:21:56;7.67;;;4.70;;
73142;SDS011;61343;53.694;9.988;2022-08-21T02:24:21;7.63;;;4.73;;
73142;SDS011;61343;53.694;9.988;2022-08-21T02:26:47;9.53;;;4.63;;
73142;SDS011;61343;53.694;9.988;2022-08-21T02:29:12;8.93;;;4.27;;
73142;SDS011;61343;53.694;9.988;2022-08-21T02:31:37;8.93;;;4.67;;
73142;SDS011;61343;53.694;9.988;2022-08-21T02:34:03;9.53;;;4.80;;
73142;SDS011;61343;53.694;9.988;2022-08-21T02:36:28;7.57;;;4.00;;
73142;SDS011;61343;53.694;9.988;2022-08-21T02:38:54;8.03;;;4.70;;
73142;SDS011;61343;53.694;9.988;2022-08-21T02:41:19;9.10;;;4.17;;
73142;SDS011;61343;53.694;9.988;2022-08-21T02:43:46;8.43;;;4.37;;
73142;SDS011;61343;53.694;9.988;2022-08-21T02:46:12;7.18;;;3.90;;
73142;SDS011;61343;53.694;9.988;2022-08-21T02:48:39;9.45;;;4.40;;
73142;SDS011;61343;53.694;9.988;2022-08-21T02:51:06;7.60;;;4.17;;
73142;SDS011;61343;53.694;9.988;2022-08-21T02:53:33;8.43;;;4.70;;
73142;SDS011;61343;53.694;9.988;2022-08-21T02:56:01;7.90;;;3.78;;
73142;SDS011;61343;53.694;9.988;2022-08-21T02:58:31;7.63;;;4.10;;
73142;SDS011;61343;53.694;9.988;2022-08-21T03:00:59;6.63;;;4.10;;
73142;SDS011;61343;53.694;9.988;2022-08-21T03:03:25;7.30;;;4.23;;
73142;SDS011;61343;53.694;9.988;2022-08-21T03:05:51;8.07;;;4.05;;
73142;SDS011;61343;53.694;9.988;2022-08-21T03:08:18;8.60;;;4.35;;
73142;SDS011;61343;53.694;9.988;2022-08-21T03:10:45;7.43;;;3.92;;
73142;SDS011;61343;53.694;9.988;2022-08-21T03:13:12;7.60;;;4.30;;
73142;SDS011;61343;53.694;9.988;2022-08-21T03:15:38;7.55;;;4.43;;
73142;SDS011;61343;53.694;9.988;2022-08-21T03:18:05;9.30;;;4.38;;
73142;SDS011;61343;53.694;9.988;2022-08-21T03:20:31;8.48;;;4.75;;
73142;SDS011;61343;53.694;9.988;2022-08-21T03:22:59;7.28;;;4.05;;
73142;SDS011;61343;53.694;9.988;2022-08-21T03:25:25;9.90;;;4.37;;
73142;SDS011;61343;53.694;9.988;2022-08-21T03:27:52;8.98;;;4.30;;
73142;SDS011;61343;53.694;9.988;2022-08-21T03:30:19;7.43;;;4.40;;
73142;SDS011;61343;53.694;9.988;2022-08-21T03:32:47;11.57;;;4.67;;
73142;SDS011;61343;53.694;9.988;2022-08-21T03:35:13;8.85;;;4.38;;
73142;SDS011;61343;53.694;9.988;2022-08-21T03:37:40;8.43;;;4.10;;
73142;SDS011;61343;53.694;9.988;2022-08-21T03:40:06;8.00;;;4.30;;
73142;SDS011;61343;53.694;9.988;2022-08-21T03:42:34;8.23;;;4.33;;
73142;SDS011;61343;53.694;9.988;2022-08-21T03:45:00;8.15;;;4.32;;
73142;SDS011;61343;53.694;9.988;2022-08-21T03:47:26;8.25;;;4.20;;
73142;SDS011;61343;53.694;9.988;2022-08-21T03:49:51;8.67;;;4.10;;
73142;SDS011;61343;53.694;9.988;2022-08-21T03:52:17;9.17;;;4.90;;
73142;SDS011;61343;53.694;9.988;2022-08-21T03:54:43;7.45;;;4.13;;
73142;SDS011;61343;53.694;9.988;2022-08-21T03:57:09;7.90;;;4.13;;
73142;SDS011;61343;53.694;9.988;2022-08-21T03:59:35;8.60;;;4.10;;
73142;SDS011;61343;53.694;9.988;2022-08-21T04:02:03;6.97;;;4.18;;
73142;SDS011;61343;53.694;9.988;2022-08-21T04:04:30;8.43;;;4.00;;
73142;SDS011;61343;53.694;9.988;2022-08-21T04:06:56;7.43;;;4.22;;
73142;SDS011;61343;53.694;9.988;2022-08-21T04:09:22;7.10;;;4.17;;
73142;SDS011;61343;53.694;9.988;2022-08-21T04:11:48;8.10;;;4.07;;
73142;SDS011;61343;53.694;9.988;2022-08-21T04:14:14;7.90;;;3.78;;
73142;SDS011;61343;53.694;9.988;2022-08-21T04:16:40;8.37;;;3.97;;
73142;SDS011;61343;53.694;9.988;2022-08-21T04:19:07;8.25;;;4.13;;
73142;SDS011;61343;53.694;9.988;2022-08-21T04:21:33;8.35;;;4.10;;
73142;SDS011;61343;53.694;9.988;2022-08-21T04:23:58;7.17;;;4.13;;
73142;SDS011;61343;53.694;9.988;2022-08-21T04:26:24;7.35;;;4.07;;
73142;SDS011;61343;53.694;9.988;2022-08-21T04:28:50;8.53;;;4.03;;
73142;SDS011;61343;53.694;9.988;2022-08-21T04:31:15;9.57;;;4.10;;
73142;SDS011;61343;53.694;9.988;2022-08-21T04:33:41;7.50;;;4.10;;
73142;SDS011;61343;53.694;9.988;2022-08-21T04:36:06;10.03;;;4.30;;
73142;SDS011;61343;53.694;9.988;2022-08-21T04:38:32;9.20;;;4.45;;
73142;SDS011;61343;53.694;9.988;2022-08-21T04:40:58;7.30;;;4.37;;
73142;SDS011;61343;53.694;9.988;2022-08-21T04:43:23;8.27;;;4.53;;
73142;SDS011;61343;53.694;9.988;2022-08-21T04:45:49;7.50;;;4.10;;
73142;SDS011;61343;53.694;9.988;2022-08-21T04:48:17;9.80;;;4.20;;
73142;SDS011;61343;53.694;9.988;2022-08-21T04:53:44;7.10;;;3.80;;
73142;SDS011;61343;53.694;9.988;2022-08-21T04:56:18;7.88;;;4.00;;
73142;SDS011;61343;53.694;9.988;2022-08-21T04:58:47;9.35;;;4.25;;
73142;SDS011;61343;53.694;9.988;2022-08-21T05:01:15;7.97;;;4.20;;
73142;SDS011;61343;53.694;9.988;2022-08-21T05:03:43;10.13;;;4.50;;
73142;SDS011;61343;53.694;9.988;2022-08-21T05:06:11;8.00;;;4.88;;
73142;SDS011;61343;53.694;9.988;2022-08-21T05:08:40;8.60;;;4.30;;
73142;SDS011;61343;53.694;9.988;2022-08-21T05:11:08;8.75;;;4.00;;
73142;SDS011;61343;53.694;9.988;2022-08-21T05:13:34;7.03;;;3.90;;
73142;SDS011;61343;53.694;9.988;2022-08-21T05:16:00;7.05;;;3.60;;
73142;SDS011;61343;53.694;9.988;2022-08-21T05:18:25;7.43;;;3.90;;
73142;SDS011;61343;53.694;9.988;2022-08-21T05:20:50;9.33;;;4.57;;
73142;SDS011;61343;53.694;9.988;2022-08-21T05:23:16;7.82;;;3.95;;
73142;SDS011;61343;53.694;9.988;2022-08-21T05:25:42;7.00;;;3.90;;
73142;SDS011;61343;53.694;9.988;2022-08-21T05:28:08;9.15;;;4.20;;
73142;SDS011;61343;53.694;9.988;2022-08-21T05:30:35;13.40;;;4.50;;
73142;SDS011;61343;53.694;9.988;2022-08-21T05:33:02;8.82;;;4.53;;
73142;SDS011;61343;53.694;9.988;2022-08-21T05:35:29;6.97;;;4.20;;
73142;SDS011;61343;53.694;9.988;2022-08-21T05:37:56;8.30;;;4.47;;
73142;SDS011;61343;53.694;9.988;2022-08-21T05:40:22;8.85;;;4.75;;
73142;SDS011;61343;53.694;9.988;2022-08-21T05:42:48;10.20;;;5.15;;
73142;SDS011;61343;53.694;9.988;2022-08-21T05:45:16;9.95;;;4.93;;
73142;SDS011;61343;53.694;9.988;2022-08-21T05:47:42;9.60;;;4.93;;
73142;SDS011;61343;53.694;9.988;2022-08-21T05:50:07;10.77;;;5.47;;
73142;SDS011;61343;53.694;9.988;2022-08-21T05:52:32;8.23;;;5.27;;
73142;SDS011;61343;53.694;9.988;2022-08-21T05:54:58;10.10;;;5.27;;
73142;SDS011;61343;53.694;9.988;2022-08-21T05:57:23;8.40;;;4.97;;
73142;SDS011;61343;53.694;9.988;2022-08-21T05:59:50;8.75;;;5.05;;
73142;SDS011;61343;53.694;9.988;2022-08-21T06:02:17;8.60;;;4.90;;
73142;SDS011;61343;53.694;9.988;2022-08-21T06:04:43;8.75;;;4.55;;
73142;SDS011;61343;53.694;9.988;2022-08-21T06:07:08;12.03;;;5.90;;
73142;SDS011;61343;53.694;9.988;2022-08-21T06:09:33;10.37;;;4.87;;
73142;SDS011;61343;53.694;9.988;2022-08-21T06:12:02;9.88;;;4.72;;
73142;SDS011;61343;53.694;9.988;2022-08-21T06:14:31;9.73;;;4.87;;
73142;SDS011;61343;53.694;9.988;2022-08-21T06:17:08;8.23;;;4.53;;
73142;SDS011;61343;53.694;9.988;2022-08-21T06:19:35;10.13;;;5.15;;
73142;SDS011;61343;53.694;9.988;2022-08-21T06:22:02;7.97;;;4.70;;
73142;SDS011;61343;53.694;9.988;2022-08-21T06:24:27;10.77;;;4.60;;
73142;SDS011;61343;53.694;9.988;2022-08-21T06:26:53;8.50;;;5.03;;
73142;SDS011;61343;53.694;9.988;2022-08-21T06:29:19;13.17;;;5.73;;
73142;SDS011;61343;53.694;9.988;2022-08-21T06:31:45;8.45;;;4.93;;
73142;SDS011;61343;53.694;9.988;2022-08-21T06:34:12;10.27;;;4.55;;
73142;SDS011;61343;53.694;9.988;2022-08-21T06:36:38;10.60;;;4.87;;
73142;SDS011;61343;53.694;9.988;2022-08-21T06:39:03;13.23;;;4.95;;
73142;SDS011;61343;53.694;9.988;2022-08-21T06:41:28;12.40;;;5.00;;
73142;SDS011;61343;53.694;9.988;2022-08-21T06:43:54;10.50;;;4.70;;
73142;SDS011;61343;53.694;9.988;2022-08-21T06:46:20;10.38;;;5.00;;
73142;SDS011;61343;53.694;9.988;2022-08-21T06:48:46;11.10;;;5.00;;
73142;SDS011;61343;53.694;9.988;2022-08-21T06:51:11;10.40;;;4.77;;
73142;SDS011;61343;53.694;9.988;2022-08-21T06:53:37;11.27;;;4.93;;
73142;SDS011;61343;53.694;9.988;2022-08-21T06:56:02;13.03;;;5.00;;
73142;SDS011;61343;53.694;9.988;2022-08-21T06:58:28;10.85;;;4.72;;
73142;SDS011;61343;53.694;9.988;2022-08-21T07:00:54;13.30;;;4.87;;
73142;SDS011;61343;53.694;9.988;2022-08-21T07:03:20;12.17;;;4.57;;
73142;SDS011;61343;53.694;9.988;2022-08-21T07:05:49;10.65;;;4.60;;
73142;SDS011;61343;53.694;9.988;2022-08-21T07:08:14;11.40;;;4.30;;
73142;SDS011;61343;53.694;9.988;2022-08-21T07:10:40;9.20;;;4.40;;
73142;SDS011;61343;53.694;9.988;2022-08-21T07:13:05;13.88;;;4.30;;
73142;SDS011;61343;53.694;9.988;2022-08-21T07:15:31;8.77;;;3.93;;
73142;SDS011;61343;53.694;9.988;2022-08-21T07:17:57;10.77;;;4.20;;
73142;SDS011;61343;53.694;9.988;2022-08-21T07:20:23;7.65;;;4.15;;
73142;SDS011;61343;53.694;9.988;2022-08-21T07:22:48;8.83;;;3.60;;
73142;SDS011;61343;53.694;9.988;2022-08-21T07:25:14;10.37;;;3.50;;
73142;SDS011;61343;53.694;9.988;2022-08-21T07:27:39;7.80;;;3.40;;
73142;SDS011;61343;53.694;9.988;2022-08-21T07:30:05;11.27;;;4.13;;
73142;SDS011;61343;53.694;9.988;2022-08-21T07:32:31;8.70;;;3.30;;
73142;SDS011;61343;53.694;9.988;2022-08-21T07:34:56;7.87;;;3.13;;
73142;SDS011;61343;53.694;9.988;2022-08-21T07:37:24;10.18;;;3.30;;
73142;SDS011;61343;53.694;9.988;2022-08-21T07:39:50;6.53;;;2.80;;
73142;SDS011;61343;53.694;9.988;2022-08-21T07:42:16;7.15;;;3.10;;
73142;SDS011;61343;53.694;9.988;2022-08-21T07:44:42;8.85;;;2.90;;
73142;SDS011;61343;53.694;9.988;2022-08-21T07:47:07;6.47;;;2.70;;
73142;SDS011;61343;53.694;9.988;2022-08-21T07:49:33;8.73;;;2.80;;
73142;SDS011;61343;53.694;9.988;2022-08-21T07:51:58;5.93;;;2.30;;
73142;SDS011;61343;53.694;9.988;2022-08-21T07:54:24;6.88;;;2.33;;
73142;SDS011;61343;53.694;9.988;2022-08-21T07:56:50;8.13;;;2.20;;
73142;SDS011;61343;53.694;9.988;2022-08-21T07:59:15;8.10;;;2.40;;
73142;SDS011;61343;53.694;9.988;2022-08-21T08:01:40;5.93;;;2.20;;
73142;SDS011;61343;53.694;9.988;2022-08-21T08:04:06;7.67;;;2.10;;
73142;SDS011;61343;53.694;9.988;2022-08-21T08:06:31;6.33;;;1.70;;
73142;SDS011;61343;53.694;9.988;2022-08-21T08:08:57;6.07;;;1.60;;
73142;SDS011;61343;53.694;9.988;2022-08-21T08:11:22;5.60;;;1.50;;
73142;SDS011;61343;53.694;9.988;2022-08-21T08:13:48;6.60;;;1.40;;
73142;SDS011;61343;53.694;9.988;2022-08-21T08:16:16;7.38;;;1.60;;
73142;SDS011;61343;53.694;9.988;2022-08-21T08:18:42;5.22;;;1.67;;
73142;SDS011;61343;53.694;9.988;2022-08-21T08:21:09;7.73;;;1.70;;
73142;SDS011;61343;53.694;9.988;2022-08-21T08:23:36;6.38;;;1.83;;
73142;SDS011;61343;53.694;9.988;2022-08-21T08:26:01;9.00;;;2.10;;
73142;SDS011;61343;53.694;9.988;2022-08-21T08:28:30;6.57;;;2.00;;
73142;SDS011;61343;53.694;9.988;2022-08-21T08:30:58;8.35;;;1.98;;
73142;SDS011;61343;53.694;9.988;2022-08-21T08:33:24;7.65;;;2.15;;
73142;SDS011;61343;53.694;9.988;2022-08-21T08:35:50;6.97;;;1.80;;
73142;SDS011;61343;53.694;9.988;2022-08-21T08:38:17;8.65;;;1.80;;
73142;SDS011;61343;53.694;9.988;2022-08-21T08:43:16;6.07;;;1.80;;
73142;SDS011;61343;53.694;9.988;2022-08-21T08:45:43;8.23;;;1.95;;
73142;SDS011;61343;53.694;9.988;2022-08-21T08:48:14;8.57;;;2.10;;
73142;SDS011;61343;53.694;9.988;2022-08-21T08:50:56;10.63;;;2.00;;
73142;SDS011;61343;53.694;9.988;2022-08-21T08:53:27;7.83;;;1.80;;
73142;SDS011;61343;53.694;9.988;2022-08-21T08:55:56;8.10;;;1.90;;
73142;SDS011;61343;53.694;9.988;2022-08-21T08:58:24;6.55;;;1.90;;
73142;SDS011;61343;53.694;9.988;2022-08-21T09:00:53;8.30;;;2.10;;
73142;SDS011;61343;53.694;9.988;2022-08-21T09:03:20;8.90;;;2.20;;
73142;SDS011;61343;53.694;9.988;2022-08-21T09:05:50;6.63;;;2.00;;
73142;SDS011;61343;53.694;9.988;2022-08-21T09:08:27;7.05;;;1.80;;
73142;SDS011;61343;53.694;9.988;2022-08-21T09:14:07;8.18;;;2.35;;
73142;SDS011;61343;53.694;9.988;2022-08-21T09:19:27;7.97;;;2.30;;
73142;SDS011;61343;53.694;9.988;2022-08-21T09:25:03;9.68;;;2.30;;
73142;SDS011;61343;53.694;9.988;2022-08-21T09:27:37;8.20;;;2.42;;
73142;SDS011;61343;53.694;9.988;2022-08-21T09:30:03;9.27;;;2.53;;
73142;SDS011;61343;53.694;9.988;2022-08-21T09:32:31;7.40;;;1.90;;
73142;SDS011;61343;53.694;9.988;2022-08-21T09:35:14;7.90;;;2.10;;
73142;SDS011;61343;53.694;9.988;2022-08-21T09:40:36;8.23;;;2.30;;
73142;SDS011;61343;53.694;9.988;2022-08-21T09:43:06;8.45;;;2.00;;
73142;SDS011;61343;53.694;9.988;2022-08-21T09:45:36;9.40;;;2.28;;
73142;SDS011;61343;53.694;9.988;2022-08-21T09:50:43;8.80;;;2.45;;
73142;SDS011;61343;53.694;9.988;2022-08-21T09:53:20;8.35;;;2.88;;
73142;SDS011;61343;53.694;9.988;2022-08-21T09:55:56;6.85;;;2.10;;
73142;SDS011;61343;53.694;9.988;2022-08-21T09:58:43;6.88;;;2.08;;
73142;SDS011;61343;53.694;9.988;2022-08-21T10:01:18;8.87;;;2.90;;
73142;SDS011;61343;53.694;9.988;2022-08-21T10:03:48;12.32;;;2.75;;
73142;SDS011;61343;53.694;9.988;2022-08-21T10:06:27;6.45;;;2.45;;
73142;SDS011;61343;53.694;9.988;2022-08-21T10:11:38;9.85;;;2.70;;
73142;SDS011;61343;53.694;9.988;2022-08-21T10:16:44;7.93;;;2.30;;
73142;SDS011;61343;53.694;9.988;2022-08-21T10:25:14;8.68;;;2.72;;
73142;SDS011;61343;53.694;9.988;2022-08-21T10:30:36;11.52;;;2.95;;
73142;SDS011;61343;53.694;9.988;2022-08-21T10:36:26;9.18;;;2.22;;
73142;SDS011;61343;53.694;9.988;2022-08-21T10:39:07;11.30;;;2.50;;
73142;SDS011;61343;53.694;9.988;2022-08-21T10:41:44;9.67;;;2.13;;
73142;SDS011;61343;53.694;9.988;2022-08-21T10:44:23;9.77;;;2.40;;
73142;SDS011;61343;53.694;9.988;2022-08-21T10:47:05;8.57;;;2.17;;
73142;SDS011;61343;53.694;9.988;2022-08-21T10:49:57;8.77;;;2.10;;
73142;SDS011;61343;53.694;9.988;2022-08-21T10:55:04;7.77;;;2.20;;
73142;SDS011;61343;53.694;9.988;2022-08-21T10:57:41;8.43;;;2.33;;
73142;SDS011;61343;53.694;9.988;2022-08-21T11:00:24;5.90;;;1.80;;
73142;SDS011;61343;53.694;9.988;2022-08-21T11:03:29;8.73;;;1.98;;
73142;SDS011;61343;53.694;9.988;2022-08-21T11:05:48;5.95;;;2.00;;
73142;SDS011;61343;53.694;9.988;2022-08-21T11:08:23;7.50;;;2.43;;
73142;SDS011;61343;53.694;9.988;2022-08-21T11:10:58;6.00;;;1.55;;
73142;SDS011;61343;53.694;9.988;2022-08-21T11:21:54;7.17;;;2.20;;
73142;SDS011;61343;53.694;9.988;2022-08-21T11:29:40;8.07;;;1.88;;
73142;SDS011;61343;53.694;9.988;2022-08-21T11:35:01;5.60;;;1.60;;
73142;SDS011;61343;53.694;9.988;2022-08-21T11:37:45;5.88;;;1.60;;
73142;SDS011;61343;53.694;9.988;2022-08-21T11:40:37;6.28;;;1.70;;
73142;SDS011;61343;53.694;9.988;2022-08-21T11:43:09;5.60;;;1.63;;
73142;SDS011;61343;53.694;9.988;2022-08-21T11:45:53;5.82;;;1.70;;
73142;SDS011;61343;53.694;9.988;2022-08-21T11:50:49;6.13;;;2.40;;
73142;SDS011;61343;53.694;9.988;2022-08-21T11:53:24;7.07;;;3.45;;
73142;SDS011;61343;53.694;9.988;2022-08-21T11:56:04;6.20;;;1.80;;
73142;SDS011;61343;53.694;9.988;2022-08-21T11:58:40;5.70;;;1.70;;
73142;SDS011;61343;53.694;9.988;2022-08-21T12:01:14;5.80;;;1.60;;
73142;SDS011;61343;53.694;9.988;2022-08-21T12:04:06;5.33;;;1.60;;
73142;SDS011;61343;53.694;9.988;2022-08-21T12:06:34;7.63;;;1.83;;
73142;SDS011;61343;53.694;9.988;2022-08-21T12:12:09;6.38;;;1.75;;
73142;SDS011;61343;53.694;9.988;2022-08-21T12:14:48;6.85;;;1.85;;
73142;SDS011;61343;53.694;9.988;2022-08-21T12:17:19;6.67;;;1.90;;
73142;SDS011;61343;53.694;9.988;2022-08-21T12:19:56;5.35;;;1.85;;
73142;SDS011;61343;53.694;9.988;2022-08-21T12:22:40;7.50;;;2.10;;
73142;SDS011;61343;53.694;9.988;2022-08-21T12:25:07;5.22;;;1.67;;
73142;SDS011;61343;53.694;9.988;2022-08-21T12:27:51;5.60;;;1.60;;
73142;SDS011;61343;53.694;9.988;2022-08-21T12:32:55;3.80;;;1.30;;
73142;SDS011;61343;53.694;9.988;2022-08-21T12:35:47;6.55;;;1.58;;
73142;SDS011;61343;53.694;9.988;2022-08-21T12:38:15;5.75;;;1.60;;
73142;SDS011;61343;53.694;9.988;2022-08-21T12:41:05;4.45;;;1.40;;
73142;SDS011;61343;53.694;9.988;2022-08-21T12:43:38;5.45;;;1.60;;
73142;SDS011;61343;53.694;9.988;2022-08-21T12:46:15;7.50;;;1.80;;
73142;SDS011;61343;53.694;9.988;2022-08-21T12:48:52;7.57;;;1.67;;
73142;SDS011;61343;53.694;9.988;2022-08-21T12:51:26;6.40;;;1.60;;
73142;SDS011;61343;53.694;9.988;2022-08-21T12:54:26;3.80;;;1.20;;
73142;SDS011;61343;53.694;9.988;2022-08-21T12:56:57;5.45;;;1.40;;
73142;SDS011;61343;53.694;9.988;2022-08-21T12:59:29;4.67;;;1.40;;
73142;SDS011;61343;53.694;9.988;2022-08-21T13:01:55;4.63;;;1.50;;
73142;SDS011;61343;53.694;9.988;2022-08-21T13:04:25;5.22;;;1.27;;
73142;SDS011;61343;53.694;9.988;2022-08-21T13:06:58;4.63;;;1.30;;
73142;SDS011;61343;53.694;9.988;2022-08-21T13:09:26;4.20;;;1.30;;
73142;SDS011;61343;53.694;9.988;2022-08-21T13:11:54;5.43;;;1.10;;
73142;SDS011;61343;53.694;9.988;2022-08-21T13:14:23;4.68;;;1.20;;
73142;SDS011;61343;53.694;9.988;2022-08-21T13:16:54;5.07;;;1.42;;
73142;SDS011;61343;53.694;9.988;2022-08-21T13:19:21;4.07;;;1.13;;
73142;SDS011;61343;53.694;9.988;2022-08-21T13:21:46;5.27;;;1.40;;
73142;SDS011;61343;53.694;9.988;2022-08-21T13:24:16;3.80;;;1.20;;
73142;SDS011;61343;53.694;9.988;2022-08-21T13:26:50;4.85;;;1.55;;
73142;SDS011;61343;53.694;9.988;2022-08-21T13:29:18;6.20;;;1.23;;
73142;SDS011;61343;53.694;9.988;2022-08-21T13:31:57;5.55;;;1.20;;
73142;SDS011;61343;53.694;9.988;2022-08-21T13:34:28;5.65;;;1.10;;
73142;SDS011;61343;53.694;9.988;2022-08-21T13:37:00;5.00;;;1.60;;
73142;SDS011;61343;53.694;9.988;2022-08-21T13:39:30;4.63;;;1.15;;
73142;SDS011;61343;53.694;9.988;2022-08-21T13:41:58;5.28;;;1.42;;
73142;SDS011;61343;53.694;9.988;2022-08-21T13:47:10;5.25;;;1.30;;
73142;SDS011;61343;53.694;9.988;2022-08-21T13:49:39;4.17;;;1.20;;
73142;SDS011;61343;53.694;9.988;2022-08-21T13:52:23;4.13;;;1.00;;
73142;SDS011;61343;53.694;9.988;2022-08-21T13:54:56;6.25;;;1.10;;
73142;SDS011;61343;53.694;9.988;2022-08-21T13:57:28;4.25;;;1.20;;
73142;SDS011;61343;53.694;9.988;2022-08-21T14:02:45;4.67;;;1.00;;
73142;SDS011;61343;53.694;9.988;2022-08-21T14:05:16;4.80;;;1.10;;
73142;SDS011;61343;53.694;9.988;2022-08-21T14:07:50;6.30;;;1.20;;
73142;SDS011;61343;53.694;9.988;2022-08-21T14:10:26;3.97;;;1.10;;
73142;SDS011;61343;53.694;9.988;2022-08-21T14:13:01;4.78;;;1.20;;
73142;SDS011;61343;53.694;9.988;2022-08-21T14:15:29;5.43;;;1.20;;
73142;SDS011;61343;53.694;9.988;2022-08-21T14:18:13;4.78;;;1.23;;
73142;SDS011;61343;53.694;9.988;2022-08-21T14:20:40;4.88;;;1.10;;
73142;SDS011;61343;53.694;9.988;2022-08-21T14:23:06;4.07;;;1.30;;
73142;SDS011;61343;53.694;9.988;2022-08-21T14:25:39;7.43;;;1.40;;
73142;SDS011;61343;53.694;9.988;2022-08-21T14:31:11;6.43;;;1.30;;
73142;SDS011;61343;53.694;9.988;2022-08-21T14:33:44;3.70;;;1.10;;
73142;SDS011;61343;53.694;9.988;2022-08-21T14:36:09;5.73;;;1.30;;
73142;SDS011;61343;53.694;9.988;2022-08-21T14:38:36;4.95;;;1.27;;
73142;SDS011;61343;53.694;9.988;2022-08-21T14:41:04;5.05;;;1.27;;
73142;SDS011;61343;53.694;9.988;2022-08-21T14:43:40;5.23;;;1.23;;
73142;SDS011;61343;53.694;9.988;2022-08-21T14:46:06;4.40;;;1.20;;
73142;SDS011;61343;53.694;9.988;2022-08-21T14:48:31;4.40;;;1.20;;
73142;SDS011;61343;53.694;9.988;2022-08-21T14:50:57;7.17;;;1.23;;
73142;SDS011;61343;53.694;9.988;2022-08-21T14:53:22;4.17;;;1.10;;
73142;SDS011;61343;53.694;9.988;2022-08-21T14:55:47;5.57;;;1.20;;
73142;SDS011;61343;53.694;9.988;2022-08-21T14:58:32;4.97;;;1.10;;
73142;SDS011;61343;53.694;9.988;2022-08-21T15:00:59;5.40;;;1.40;;
73142;SDS011;61343;53.694;9.988;2022-08-21T15:03:28;5.38;;;1.40;;
73142;SDS011;61343;53.694;9.988;2022-08-21T15:05:53;7.17;;;1.50;;
73142;SDS011;61343;53.694;9.988;2022-08-21T15:08:19;4.73;;;1.70;;
73142;SDS011;61343;53.694;9.988;2022-08-21T15:10:44;6.93;;;1.47;;
73142;SDS011;61343;53.694;9.988;2022-08-21T15:13:10;5.50;;;1.20;;
73142;SDS011;61343;53.694;9.988;2022-08-21T15:15:40;4.43;;;1.23;;
73142;SDS011;61343;53.694;9.988;2022-08-21T15:18:08;5.45;;;1.27;;
73142;SDS011;61343;53.694;9.988;2022-08-21T15:20:33;5.82;;;1.10;;
73142;SDS011;61343;53.694;9.988;2022-08-21T15:22:59;4.90;;;1.27;;
73142;SDS011;61343;53.694;9.988;2022-08-21T15:25:24;4.80;;;1.10;;
73142;SDS011;61343;53.694;9.988;2022-08-21T15:27:50;4.57;;;1.20;;
73142;SDS011;61343;53.694;9.988;2022-08-21T15:30:15;4.40;;;1.00;;
73142;SDS011;61343;53.694;9.988;2022-08-21T15:32:41;6.27;;;1.10;;
73142;SDS011;61343;53.694;9.988;2022-08-21T15:35:07;5.50;;;1.20;;
73142;SDS011;61343;53.694;9.988;2022-08-21T15:37:33;6.67;;;1.20;;
73142;SDS011;61343;53.694;9.988;2022-08-21T15:39:58;5.70;;;1.30;;
73142;SDS011;61343;53.694;9.988;2022-08-21T15:42:24;5.63;;;1.10;;
73142;SDS011;61343;53.694;9.988;2022-08-21T15:44:54;4.90;;;1.20;;
73142;SDS011;61343;53.694;9.988;2022-08-21T15:47:25;4.07;;;1.00;;
73142;SDS011;61343;53.694;9.988;2022-08-21T15:49:53;5.22;;;1.05;;
73142;SDS011;61343;53.694;9.988;2022-08-21T15:52:19;4.47;;;1.20;;
73142;SDS011;61343;53.694;9.988;2022-08-21T15:54:45;4.88;;;1.13;;
73142;SDS011;61343;53.694;9.988;2022-08-21T15:57:13;4.80;;;1.00;;
73142;SDS011;61343;53.694;9.988;2022-08-21T15:59:42;3.88;;;1.17;;
73142;SDS011;61343;53.694;9.988;2022-08-21T16:02:12;3.87;;;1.07;;
73142;SDS011;61343;53.694;9.988;2022-08-21T16:04:40;4.78;;;1.10;;
73142;SDS011;61343;53.694;9.988;2022-08-21T16:07:06;4.27;;;1.20;;
73142;SDS011;61343;53.694;9.988;2022-08-21T16:09:31;5.53;;;1.10;;